sensor_id;sensor_type;location;lat;lon;timestamp;P1;durP1;ratioP1;P2;durP2;ratioP2
15528;SDS011;7866;52.280;9.500;2022-08-19T00:01:42;4.00;;;3.35;;
15528;SDS011;7866;52.280;9.500;2022-08-19T00:06:46;3.60;;;3.30;;
15528;SDS011;7866;52.280;9.500;2022-08-19T00:11:48;3.97;;;3.50;;
15528;SDS011;7866;52.280;9.500;2022-08-19T00:16:51;5.55;;;3.60;;
15528;SDS011;7866;52.280;9.500;2022-08-19T00:21:54;5.93;;;3.33;;
15528;SDS011;7866;52.280;9.500;2022-08-19T00:26:56;6.55;;;3.35;;
15528;SDS011;7866;52.280;9.500;2022-08-19T00:31:59;5.60;;;4.35;;
15528;SDS011;7866;52.280;9.500;2022-08-19T00:37:01;5.05;;;3.90;;
15528;SDS011;7866;52.280;9.500;2022-08-19T00:42:03;4.40;;;3.83;;
15528;SDS011;7866;52.280;9.500;2022-08-19T00:47:07;4.70;;;3.67;;
15528;SDS011;7866;52.280;9.500;2022-08-19T00:52:09;4.18;;;3.72;;
15528;SDS011;7866;52.280;9.500;2022-08-19T00:57:14;5.78;;;4.18;;
15528;SDS011;7866;52.280;9.500;2022-08-19T01:02:19;4.22;;;3.92;;
15528;SDS011;7866;52.280;9.500;2022-08-19T01:07:21;4.43;;;3.90;;
15528;SDS011;7866;52.280;9.500;2022-08-19T01:12:23;5.30;;;3.70;;
15528;SDS011;7866;52.280;9.500;2022-08-19T01:17:26;5.13;;;3.95;;
15528;SDS011;7866;52.280;9.500;2022-08-19T01:22:30;7.32;;;4.07;;
15528;SDS011;7866;52.280;9.500;2022-08-19T01:27:37;4.50;;;4.10;;
15528;SDS011;7866;52.280;9.500;2022-08-19T01:32:40;4.88;;;4.28;;
15528;SDS011;7866;52.280;9.500;2022-08-19T01:37:49;4.72;;;4.28;;
15528;SDS011;7866;52.280;9.500;2022-08-19T01:42:52;6.03;;;4.40;;
15528;SDS011;7866;52.280;9.500;2022-08-19T01:47:55;6.32;;;3.95;;
15528;SDS011;7866;52.280;9.500;2022-08-19T01:52:59;5.32;;;4.15;;
15528;SDS011;7866;52.280;9.500;2022-08-19T01:58:01;5.55;;;4.03;;
15528;SDS011;7866;52.280;9.500;2022-08-19T02:03:06;5.18;;;3.83;;
15528;SDS011;7866;52.280;9.500;2022-08-19T02:08:11;4.40;;;3.67;;
15528;SDS011;7866;52.280;9.500;2022-08-19T02:13:13;5.22;;;3.58;;
15528;SDS011;7866;52.280;9.500;2022-08-19T02:18:14;7.05;;;3.95;;
15528;SDS011;7866;52.280;9.500;2022-08-19T02:23:18;4.10;;;3.63;;
15528;SDS011;7866;52.280;9.500;2022-08-19T02:28:19;5.93;;;4.18;;
15528;SDS011;7866;52.280;9.500;2022-08-19T02:33:21;3.88;;;3.50;;
15528;SDS011;7866;52.280;9.500;2022-08-19T02:38:24;4.57;;;3.90;;
15528;SDS011;7866;52.280;9.500;2022-08-19T02:43:26;3.58;;;3.28;;
15528;SDS011;7866;52.280;9.500;2022-08-19T02:48:29;4.10;;;3.47;;
15528;SDS011;7866;52.280;9.500;2022-08-19T02:53:34;3.80;;;3.50;;
15528;SDS011;7866;52.280;9.500;2022-08-19T02:58:35;4.70;;;3.25;;
15528;SDS011;7866;52.280;9.500;2022-08-19T03:03:37;5.75;;;3.72;;
15528;SDS011;7866;52.280;9.500;2022-08-19T03:08:41;2.97;;;2.78;;
15528;SDS011;7866;52.280;9.500;2022-08-19T03:13:45;3.70;;;3.40;;
15528;SDS011;7866;52.280;9.500;2022-08-19T03:18:49;3.63;;;3.28;;
15528;SDS011;7866;52.280;9.500;2022-08-19T03:23:54;4.15;;;3.75;;
15528;SDS011;7866;52.280;9.500;2022-08-19T03:28:57;4.07;;;3.67;;
15528;SDS011;7866;52.280;9.500;2022-08-19T03:34:02;3.42;;;3.13;;
15528;SDS011;7866;52.280;9.500;2022-08-19T03:39:05;4.22;;;3.38;;
15528;SDS011;7866;52.280;9.500;2022-08-19T03:44:08;5.38;;;3.80;;
15528;SDS011;7866;52.280;9.500;2022-08-19T03:49:10;5.35;;;4.15;;
15528;SDS011;7866;52.280;9.500;2022-08-19T03:54:14;5.35;;;4.00;;
15528;SDS011;7866;52.280;9.500;2022-08-19T03:59:18;3.83;;;3.10;;
15528;SDS011;7866;52.280;9.500;2022-08-19T04:04:22;5.97;;;3.45;;
15528;SDS011;7866;52.280;9.500;2022-08-19T04:09:26;3.25;;;2.95;;
15528;SDS011;7866;52.280;9.500;2022-08-19T04:14:28;3.33;;;2.72;;
15528;SDS011;7866;52.280;9.500;2022-08-19T04:19:31;3.42;;;2.95;;
15528;SDS011;7866;52.280;9.500;2022-08-19T04:24:36;2.97;;;2.78;;
15528;SDS011;7866;52.280;9.500;2022-08-19T04:29:38;3.08;;;2.75;;
15528;SDS011;7866;52.280;9.500;2022-08-19T04:34:41;2.70;;;2.30;;
15528;SDS011;7866;52.280;9.500;2022-08-19T04:39:44;2.72;;;2.53;;
15528;SDS011;7866;52.280;9.500;2022-08-19T04:45:04;3.50;;;3.08;;
15528;SDS011;7866;52.280;9.500;2022-08-19T04:50:10;3.42;;;2.90;;
15528;SDS011;7866;52.280;9.500;2022-08-19T04:55:13;3.75;;;3.20;;
15528;SDS011;7866;52.280;9.500;2022-08-19T05:00:15;3.30;;;3.00;;
15528;SDS011;7866;52.280;9.500;2022-08-19T05:05:17;4.10;;;3.65;;
15528;SDS011;7866;52.280;9.500;2022-08-19T05:10:21;4.05;;;3.70;;
15528;SDS011;7866;52.280;9.500;2022-08-19T05:15:22;3.85;;;3.53;;
15528;SDS011;7866;52.280;9.500;2022-08-19T05:20:24;3.40;;;3.17;;
15528;SDS011;7866;52.280;9.500;2022-08-19T05:25:44;3.97;;;3.60;;
15528;SDS011;7866;52.280;9.500;2022-08-19T05:30:46;6.13;;;4.95;;
15528;SDS011;7866;52.280;9.500;2022-08-19T05:35:50;3.83;;;3.53;;
15528;SDS011;7866;52.280;9.500;2022-08-19T05:40:53;5.38;;;4.63;;
15528;SDS011;7866;52.280;9.500;2022-08-19T05:45:55;4.78;;;4.38;;
15528;SDS011;7866;52.280;9.500;2022-08-19T05:50:57;4.82;;;4.38;;
15528;SDS011;7866;52.280;9.500;2022-08-19T05:56:04;5.55;;;3.83;;
15528;SDS011;7866;52.280;9.500;2022-08-19T06:01:09;4.63;;;3.60;;
15528;SDS011;7866;52.280;9.500;2022-08-19T06:06:12;3.90;;;3.60;;
15528;SDS011;7866;52.280;9.500;2022-08-19T06:11:18;4.15;;;3.58;;
15528;SDS011;7866;52.280;9.500;2022-08-19T06:16:21;4.47;;;4.07;;
15528;SDS011;7866;52.280;9.500;2022-08-19T06:21:25;6.20;;;5.03;;
15528;SDS011;7866;52.280;9.500;2022-08-19T06:26:29;4.32;;;3.92;;
15528;SDS011;7866;52.280;9.500;2022-08-19T06:31:32;6.00;;;5.45;;
15528;SDS011;7866;52.280;9.500;2022-08-19T06:36:36;7.90;;;5.30;;
15528;SDS011;7866;52.280;9.500;2022-08-19T06:41:43;5.65;;;5.15;;
15528;SDS011;7866;52.280;9.500;2022-08-19T06:46:45;6.43;;;5.65;;
15528;SDS011;7866;52.280;9.500;2022-08-19T06:51:49;5.93;;;5.43;;
15528;SDS011;7866;52.280;9.500;2022-08-19T06:56:52;9.00;;;7.25;;
15528;SDS011;7866;52.280;9.500;2022-08-19T07:01:55;7.00;;;5.55;;
15528;SDS011;7866;52.280;9.500;2022-08-19T07:06:59;7.13;;;5.68;;
15528;SDS011;7866;52.280;9.500;2022-08-19T07:12:05;6.00;;;4.85;;
15528;SDS011;7866;52.280;9.500;2022-08-19T07:17:09;5.50;;;5.00;;
15528;SDS011;7866;52.280;9.500;2022-08-19T07:22:12;7.18;;;5.22;;
15528;SDS011;7866;52.280;9.500;2022-08-19T07:27:16;6.53;;;5.32;;
15528;SDS011;7866;52.280;9.500;2022-08-19T07:32:18;7.38;;;6.68;;
15528;SDS011;7866;52.280;9.500;2022-08-19T07:37:20;6.93;;;6.22;;
15528;SDS011;7866;52.280;9.500;2022-08-19T07:42:23;7.47;;;6.78;;
15528;SDS011;7866;52.280;9.500;2022-08-19T07:47:25;11.10;;;7.28;;
15528;SDS011;7866;52.280;9.500;2022-08-19T07:52:28;10.00;;;7.47;;
15528;SDS011;7866;52.280;9.500;2022-08-19T07:57:31;7.18;;;6.05;;
15528;SDS011;7866;52.280;9.500;2022-08-19T08:02:33;6.85;;;5.97;;
15528;SDS011;7866;52.280;9.500;2022-08-19T08:07:34;5.88;;;5.35;;
15528;SDS011;7866;52.280;9.500;2022-08-19T08:12:55;7.45;;;5.72;;
15528;SDS011;7866;52.280;9.500;2022-08-19T08:17:56;7.05;;;5.28;;
15528;SDS011;7866;52.280;9.500;2022-08-19T08:22:58;5.78;;;5.07;;
15528;SDS011;7866;52.280;9.500;2022-08-19T08:28:19;5.25;;;4.28;;
15528;SDS011;7866;52.280;9.500;2022-08-19T08:33:21;4.93;;;4.13;;
15528;SDS011;7866;52.280;9.500;2022-08-19T08:38:25;5.10;;;3.60;;
15528;SDS011;7866;52.280;9.500;2022-08-19T08:43:30;4.53;;;3.17;;
15528;SDS011;7866;52.280;9.500;2022-08-19T08:48:36;4.07;;;2.72;;
15528;SDS011;7866;52.280;9.500;2022-08-19T08:53:42;3.38;;;2.38;;
15528;SDS011;7866;52.280;9.500;2022-08-19T08:58:49;2.95;;;2.70;;
15528;SDS011;7866;52.280;9.500;2022-08-19T09:03:57;2.92;;;2.60;;
15528;SDS011;7866;52.280;9.500;2022-08-19T09:09:00;3.90;;;2.78;;
15528;SDS011;7866;52.280;9.500;2022-08-19T09:14:08;2.00;;;1.80;;
15528;SDS011;7866;52.280;9.500;2022-08-19T09:19:17;2.58;;;2.03;;
15528;SDS011;7866;52.280;9.500;2022-08-19T09:24:19;2.97;;;2.00;;
15528;SDS011;7866;52.280;9.500;2022-08-19T09:29:22;3.65;;;1.80;;
15528;SDS011;7866;52.280;9.500;2022-08-19T09:34:24;2.88;;;2.08;;
15528;SDS011;7866;52.280;9.500;2022-08-19T09:39:26;2.25;;;1.92;;
15528;SDS011;7866;52.280;9.500;2022-08-19T09:44:29;4.22;;;2.20;;
15528;SDS011;7866;52.280;9.500;2022-08-19T09:49:33;1.95;;;1.83;;
15528;SDS011;7866;52.280;9.500;2022-08-19T09:54:35;2.47;;;1.90;;
15528;SDS011;7866;52.280;9.500;2022-08-19T09:59:39;1.85;;;1.50;;
15528;SDS011;7866;52.280;9.500;2022-08-19T10:04:41;2.00;;;1.80;;
15528;SDS011;7866;52.280;9.500;2022-08-19T10:10:02;1.70;;;1.60;;
15528;SDS011;7866;52.280;9.500;2022-08-19T10:15:08;1.52;;;1.20;;
15528;SDS011;7866;52.280;9.500;2022-08-19T10:20:10;1.65;;;1.55;;
15528;SDS011;7866;52.280;9.500;2022-08-19T10:25:12;1.63;;;1.52;;
15528;SDS011;7866;52.280;9.500;2022-08-19T10:30:15;2.25;;;1.73;;
15528;SDS011;7866;52.280;9.500;2022-08-19T10:35:17;1.60;;;1.50;;
15528;SDS011;7866;52.280;9.500;2022-08-19T10:40:19;1.45;;;1.35;;
15528;SDS011;7866;52.280;9.500;2022-08-19T10:45:22;1.50;;;1.40;;
15528;SDS011;7866;52.280;9.500;2022-08-19T10:50:27;1.50;;;1.40;;
15528;SDS011;7866;52.280;9.500;2022-08-19T10:55:46;1.70;;;1.52;;
15528;SDS011;7866;52.280;9.500;2022-08-19T11:01:06;1.60;;;1.50;;
15528;SDS011;7866;52.280;9.500;2022-08-19T11:06:08;2.03;;;1.70;;
15528;SDS011;7866;52.280;9.500;2022-08-19T11:11:10;2.92;;;1.50;;
15528;SDS011;7866;52.280;9.500;2022-08-19T11:16:14;1.40;;;1.30;;
15528;SDS011;7866;52.280;9.500;2022-08-19T11:21:19;1.45;;;1.02;;
15528;SDS011;7866;52.280;9.500;2022-08-19T11:26:23;1.25;;;1.15;;
15528;SDS011;7866;52.280;9.500;2022-08-19T11:31:30;1.27;;;1.17;;
15528;SDS011;7866;52.280;9.500;2022-08-19T11:36:34;1.33;;;1.23;;
15528;SDS011;7866;52.280;9.500;2022-08-19T11:41:37;2.08;;;1.35;;
15528;SDS011;7866;52.280;9.500;2022-08-19T11:46:42;1.70;;;1.60;;
15528;SDS011;7866;52.280;9.500;2022-08-19T11:51:45;2.45;;;1.40;;
15528;SDS011;7866;52.280;9.500;2022-08-19T11:56:50;1.08;;;1.08;;
15528;SDS011;7866;52.280;9.500;2022-08-19T12:01:53;2.08;;;1.50;;
15528;SDS011;7866;52.280;9.500;2022-08-19T12:06:56;1.50;;;1.40;;
15528;SDS011;7866;52.280;9.500;2022-08-19T12:11:57;1.83;;;1.60;;
15528;SDS011;7866;52.280;9.500;2022-08-19T12:17:00;1.58;;;1.48;;
15528;SDS011;7866;52.280;9.500;2022-08-19T12:22:04;1.90;;;1.77;;
15528;SDS011;7866;52.280;9.500;2022-08-19T12:27:07;1.45;;;1.30;;
15528;SDS011;7866;52.280;9.500;2022-08-19T12:32:10;1.67;;;1.50;;
15528;SDS011;7866;52.280;9.500;2022-08-19T12:37:12;3.40;;;1.30;;
15528;SDS011;7866;52.280;9.500;2022-08-19T12:42:14;1.35;;;1.33;;
15528;SDS011;7866;52.280;9.500;2022-08-19T12:47:19;1.80;;;1.40;;
15528;SDS011;7866;52.280;9.500;2022-08-19T12:52:21;2.22;;;1.45;;
15528;SDS011;7866;52.280;9.500;2022-08-19T12:57:26;1.65;;;1.40;;
15528;SDS011;7866;52.280;9.500;2022-08-19T13:02:30;1.30;;;1.17;;
15528;SDS011;7866;52.280;9.500;2022-08-19T13:07:32;1.40;;;1.30;;
15528;SDS011;7866;52.280;9.500;2022-08-19T13:12:34;1.35;;;0.95;;
15528;SDS011;7866;52.280;9.500;2022-08-19T13:17:38;1.25;;;1.00;;
15528;SDS011;7866;52.280;9.500;2022-08-19T13:22:41;1.20;;;1.05;;
15528;SDS011;7866;52.280;9.500;2022-08-19T13:27:44;1.05;;;0.88;;
15528;SDS011;7866;52.280;9.500;2022-08-19T13:32:47;2.50;;;0.90;;
15528;SDS011;7866;52.280;9.500;2022-08-19T13:38:07;0.90;;;0.88;;
15528;SDS011;7866;52.280;9.500;2022-08-19T13:43:09;0.88;;;0.88;;
15528;SDS011;7866;52.280;9.500;2022-08-19T13:48:12;0.80;;;0.80;;
15528;SDS011;7866;52.280;9.500;2022-08-19T13:53:14;1.30;;;0.75;;
15528;SDS011;7866;52.280;9.500;2022-08-19T13:58:17;0.90;;;0.90;;
15528;SDS011;7866;52.280;9.500;2022-08-19T14:03:20;0.70;;;0.70;;
15528;SDS011;7866;52.280;9.500;2022-08-19T14:08:22;2.50;;;0.90;;
15528;SDS011;7866;52.280;9.500;2022-08-19T14:13:24;1.85;;;1.05;;
15528;SDS011;7866;52.280;9.500;2022-08-19T14:18:27;1.92;;;0.77;;
15528;SDS011;7866;52.280;9.500;2022-08-19T14:23:29;0.77;;;0.77;;
15528;SDS011;7866;52.280;9.500;2022-08-19T14:28:31;0.88;;;0.80;;
15528;SDS011;7866;52.280;9.500;2022-08-19T14:33:34;1.58;;;0.90;;
15528;SDS011;7866;52.280;9.500;2022-08-19T14:38:35;0.80;;;0.80;;
15528;SDS011;7866;52.280;9.500;2022-08-19T14:43:37;0.90;;;0.90;;
15528;SDS011;7866;52.280;9.500;2022-08-19T14:48:40;1.13;;;0.65;;
15528;SDS011;7866;52.280;9.500;2022-08-19T14:53:42;0.80;;;0.80;;
15528;SDS011;7866;52.280;9.500;2022-08-19T14:58:44;2.08;;;0.98;;
15528;SDS011;7866;52.280;9.500;2022-08-19T15:03:47;1.33;;;0.80;;
15528;SDS011;7866;52.280;9.500;2022-08-19T15:08:53;0.77;;;0.75;;
15528;SDS011;7866;52.280;9.500;2022-08-19T15:13:55;0.85;;;0.68;;
15528;SDS011;7866;52.280;9.500;2022-08-19T15:18:58;0.80;;;0.80;;
15528;SDS011;7866;52.280;9.500;2022-08-19T15:24:00;0.77;;;0.70;;
15528;SDS011;7866;52.280;9.500;2022-08-19T15:29:02;0.77;;;0.77;;
15528;SDS011;7866;52.280;9.500;2022-08-19T15:34:06;0.85;;;0.85;;
15528;SDS011;7866;52.280;9.500;2022-08-19T15:39:08;1.70;;;1.00;;
15528;SDS011;7866;52.280;9.500;2022-08-19T15:44:11;1.00;;;1.00;;
15528;SDS011;7866;52.280;9.500;2022-08-19T15:49:16;1.83;;;0.88;;
15528;SDS011;7866;52.280;9.500;2022-08-19T15:54:19;0.95;;;0.95;;
15528;SDS011;7866;52.280;9.500;2022-08-19T15:59:22;1.98;;;0.98;;
15528;SDS011;7866;52.280;9.500;2022-08-19T16:04:42;1.13;;;1.05;;
15528;SDS011;7866;52.280;9.500;2022-08-19T16:10:02;0.93;;;0.93;;
15528;SDS011;7866;52.280;9.500;2022-08-19T16:15:05;2.95;;;1.20;;
15528;SDS011;7866;52.280;9.500;2022-08-19T16:20:09;0.82;;;0.82;;
15528;SDS011;7866;52.280;9.500;2022-08-19T16:25:11;3.10;;;1.00;;
15528;SDS011;7866;52.280;9.500;2022-08-19T16:30:13;2.05;;;1.00;;
15528;SDS011;7866;52.280;9.500;2022-08-19T16:35:16;1.27;;;1.27;;
15528;SDS011;7866;52.280;9.500;2022-08-19T16:40:18;3.25;;;1.00;;
15528;SDS011;7866;52.280;9.500;2022-08-19T16:45:20;1.10;;;0.70;;
15528;SDS011;7866;52.280;9.500;2022-08-19T16:50:23;1.00;;;1.00;;
15528;SDS011;7866;52.280;9.500;2022-08-19T16:55:25;2.25;;;1.10;;
15528;SDS011;7866;52.280;9.500;2022-08-19T17:00:28;1.50;;;1.10;;
15528;SDS011;7866;52.280;9.500;2022-08-19T17:05:31;1.60;;;1.00;;
15528;SDS011;7866;52.280;9.500;2022-08-19T17:10:33;1.00;;;1.00;;
15528;SDS011;7866;52.280;9.500;2022-08-19T17:15:37;1.23;;;1.10;;
15528;SDS011;7866;52.280;9.500;2022-08-19T17:20:40;4.53;;;1.40;;
15528;SDS011;7866;52.280;9.500;2022-08-19T17:25:45;1.10;;;1.10;;
15528;SDS011;7866;52.280;9.500;2022-08-19T17:30:48;1.05;;;1.05;;
15528;SDS011;7866;52.280;9.500;2022-08-19T17:35:51;1.58;;;1.10;;
15528;SDS011;7866;52.280;9.500;2022-08-19T17:40:53;1.00;;;1.00;;
15528;SDS011;7866;52.280;9.500;2022-08-19T17:45:57;1.27;;;1.23;;
15528;SDS011;7866;52.280;9.500;2022-08-19T17:51:01;2.20;;;1.58;;
15528;SDS011;7866;52.280;9.500;2022-08-19T17:56:14;1.90;;;1.25;;
15528;SDS011;7866;52.280;9.500;2022-08-19T18:01:15;0.90;;;0.90;;
15528;SDS011;7866;52.280;9.500;2022-08-19T18:06:19;1.35;;;1.20;;
15528;SDS011;7866;52.280;9.500;2022-08-19T18:11:21;1.13;;;1.10;;
15528;SDS011;7866;52.280;9.500;2022-08-19T18:16:22;1.27;;;1.17;;
15528;SDS011;7866;52.280;9.500;2022-08-19T18:21:25;0.98;;;0.98;;
15528;SDS011;7866;52.280;9.500;2022-08-19T18:26:30;0.90;;;0.90;;
15528;SDS011;7866;52.280;9.500;2022-08-19T18:31:32;1.00;;;1.00;;
15528;SDS011;7866;52.280;9.500;2022-08-19T18:36:36;1.35;;;1.00;;
15528;SDS011;7866;52.280;9.500;2022-08-19T18:41:37;1.38;;;1.27;;
15528;SDS011;7866;52.280;9.500;2022-08-19T18:46:57;2.78;;;1.92;;
15528;SDS011;7866;52.280;9.500;2022-08-19T18:52:17;2.58;;;1.10;;
15528;SDS011;7866;52.280;9.500;2022-08-19T18:57:24;0.85;;;0.85;;
15528;SDS011;7866;52.280;9.500;2022-08-19T19:02:26;0.90;;;0.90;;
15528;SDS011;7866;52.280;9.500;2022-08-19T19:07:29;0.85;;;0.82;;
15528;SDS011;7866;52.280;9.500;2022-08-19T19:12:30;1.05;;;1.05;;
15528;SDS011;7866;52.280;9.500;2022-08-19T19:17:36;0.90;;;0.90;;
15528;SDS011;7866;52.280;9.500;2022-08-19T19:22:40;1.20;;;1.20;;
15528;SDS011;7866;52.280;9.500;2022-08-19T19:27:42;1.05;;;1.05;;
15528;SDS011;7866;52.280;9.500;2022-08-19T19:32:43;1.40;;;1.00;;
15528;SDS011;7866;52.280;9.500;2022-08-19T19:37:46;1.10;;;0.95;;
15528;SDS011;7866;52.280;9.500;2022-08-19T19:42:51;1.45;;;1.20;;
15528;SDS011;7866;52.280;9.500;2022-08-19T19:47:53;1.10;;;1.00;;
15528;SDS011;7866;52.280;9.500;2022-08-19T19:52:58;1.35;;;0.98;;
15528;SDS011;7866;52.280;9.500;2022-08-19T19:57:59;1.00;;;1.00;;
15528;SDS011;7866;52.280;9.500;2022-08-19T20:03:02;1.05;;;1.05;;
15528;SDS011;7866;52.280;9.500;2022-08-19T20:08:06;3.13;;;1.30;;
15528;SDS011;7866;52.280;9.500;2022-08-19T20:13:25;1.00;;;1.00;;
15528;SDS011;7866;52.280;9.500;2022-08-19T20:18:27;1.00;;;1.00;;
15528;SDS011;7866;52.280;9.500;2022-08-19T20:23:31;1.00;;;1.00;;
15528;SDS011;7866;52.280;9.500;2022-08-19T20:28:33;1.65;;;1.05;;
15528;SDS011;7866;52.280;9.500;2022-08-19T20:33:35;1.23;;;1.05;;
15528;SDS011;7866;52.280;9.500;2022-08-19T20:38:38;0.90;;;0.90;;
15528;SDS011;7866;52.280;9.500;2022-08-19T20:43:40;1.00;;;1.00;;
15528;SDS011;7866;52.280;9.500;2022-08-19T20:48:41;1.20;;;1.10;;
15528;SDS011;7866;52.280;9.500;2022-08-19T20:53:44;1.20;;;1.10;;
15528;SDS011;7866;52.280;9.500;2022-08-19T20:58:46;1.20;;;1.10;;
15528;SDS011;7866;52.280;9.500;2022-08-19T21:03:48;1.00;;;1.00;;
15528;SDS011;7866;52.280;9.500;2022-08-19T21:08:52;1.02;;;1.00;;
15528;SDS011;7866;52.280;9.500;2022-08-19T21:13:54;1.00;;;1.00;;
15528;SDS011;7866;52.280;9.500;2022-08-19T21:18:56;0.98;;;0.90;;
15528;SDS011;7866;52.280;9.500;2022-08-19T21:23:58;2.03;;;1.00;;
15528;SDS011;7866;52.280;9.500;2022-08-19T21:29:00;1.98;;;1.20;;
15528;SDS011;7866;52.280;9.500;2022-08-19T21:34:02;1.02;;;1.02;;
15528;SDS011;7866;52.280;9.500;2022-08-19T21:39:05;1.02;;;1.02;;
15528;SDS011;7866;52.280;9.500;2022-08-19T21:44:07;1.02;;;1.02;;
15528;SDS011;7866;52.280;9.500;2022-08-19T21:49:09;1.10;;;1.10;;
15528;SDS011;7866;52.280;9.500;2022-08-19T21:54:12;0.85;;;0.85;;
15528;SDS011;7866;52.280;9.500;2022-08-19T21:59:14;1.00;;;1.00;;
15528;SDS011;7866;52.280;9.500;2022-08-19T22:04:16;1.42;;;1.08;;
15528;SDS011;7866;52.280;9.500;2022-08-19T22:09:22;0.85;;;0.85;;
15528;SDS011;7866;52.280;9.500;2022-08-19T22:14:23;0.88;;;0.88;;
15528;SDS011;7866;52.280;9.500;2022-08-19T22:19:25;0.95;;;0.95;;
15528;SDS011;7866;52.280;9.500;2022-08-19T22:24:29;1.15;;;1.10;;
15528;SDS011;7866;52.280;9.500;2022-08-19T22:29:31;0.98;;;0.90;;
15528;SDS011;7866;52.280;9.500;2022-08-19T22:34:33;1.10;;;1.10;;
15528;SDS011;7866;52.280;9.500;2022-08-19T22:39:36;1.05;;;0.98;;
15528;SDS011;7866;52.280;9.500;2022-08-19T22:44:38;1.08;;;1.08;;
15528;SDS011;7866;52.280;9.500;2022-08-19T22:49:40;1.25;;;1.10;;
15528;SDS011;7866;52.280;9.500;2022-08-19T22:54:43;2.25;;;1.00;;
15528;SDS011;7866;52.280;9.500;2022-08-19T22:59:45;1.05;;;0.95;;
15528;SDS011;7866;52.280;9.500;2022-08-19T23:04:48;1.55;;;1.00;;
15528;SDS011;7866;52.280;9.500;2022-08-19T23:09:51;1.35;;;1.05;;
15528;SDS011;7866;52.280;9.500;2022-08-19T23:14:53;1.20;;;1.20;;
15528;SDS011;7866;52.280;9.500;2022-08-19T23:19:54;1.33;;;1.23;;
15528;SDS011;7866;52.280;9.500;2022-08-19T23:25:01;1.20;;;1.10;;
15528;SDS011;7866;52.280;9.500;2022-08-19T23:30:05;0.98;;;0.98;;
15528;SDS011;7866;52.280;9.500;2022-08-19T23:35:25;1.02;;;1.00;;
15528;SDS011;7866;52.280;9.500;2022-08-19T23:40:33;1.48;;;1.23;;
15528;SDS011;7866;52.280;9.500;2022-08-19T23:45:36;1.30;;;1.20;;
15528;SDS011;7866;52.280;9.500;2022-08-19T23:50:39;1.10;;;1.00;;
15528;SDS011;7866;52.280;9.500;2022-08-19T23:55:46;1.17;;;1.17;;
